N531BM KPOC-KCRQ
Flight info
| Callsign | N531BM |
|---|---|
| Flight time | 0h 34m |
| Altitude | 9000 |
| Route | ONTP11 |
| Aircraft | C337/L-VGD/C |
Departure
| Time | 2026-04-26 22:37 |
|---|---|
| Airport | Brackett Field (KPOC) |
Arrival
| Time | 2026-04-26 23:12 |
|---|---|
| Airport | McClellan-Palomar Airport (KCRQ) |
| Time | Latitude | Longitude | Altitude | Speed | Heading |
|---|---|---|---|---|---|
| 2026-04-26 22:19 | 34.08920 | -117.78104 | 1014 ft | 0 kts | 182° |
| 2026-04-26 22:25 | 34.08919 | -117.78104 | 1014 ft | 0 kts | 182° |
| 2026-04-26 22:30 | 34.08916 | -117.78102 | 1014 ft | 2 kts | 135° |
| 2026-04-26 22:30 | 34.08947 | -117.78092 | 1014 ft | 12 kts | 3° |
| 2026-04-26 22:30 | 34.09037 | -117.78058 | 1014 ft | 16 kts | 58° |
| 2026-04-26 22:31 | 34.09039 | -117.77949 | 1014 ft | 14 kts | 93° |
| 2026-04-26 22:31 | 34.09028 | -117.77741 | 1014 ft | 29 kts | 94° |
| 2026-04-26 22:31 | 34.09018 | -117.77537 | 1014 ft | 20 kts | 90° |
| 2026-04-26 22:31 | 34.09053 | -117.77487 | 1014 ft | 0 kts | 6° |
| 2026-04-26 22:36 | 34.09054 | -117.77487 | 1014 ft | 0 kts | 6° |
| 2026-04-26 22:36 | 34.09101 | -117.77529 | 1015 ft | 21 kts | 273° |
| 2026-04-26 22:37 | 34.09119 | -117.77952 | 1021 ft | 74 kts | 273° |
| 2026-04-26 22:37 | 34.09155 | -117.78574 | 1261 ft | 73 kts | 271° |
| 2026-04-26 22:37 | 34.09134 | -117.79213 | 1531 ft | 76 kts | 255° |
| 2026-04-26 22:37 | 34.08752 | -117.79672 | 1808 ft | 90 kts | 204° |
| 2026-04-26 22:38 | 34.08111 | -117.79508 | 2115 ft | 107 kts | 151° |
| 2026-04-26 22:38 | 34.07542 | -117.78878 | 2473 ft | 107 kts | 146° |
| 2026-04-26 22:38 | 34.06896 | -117.78486 | 2750 ft | 108 kts | 184° |
| 2026-04-26 22:38 | 34.06145 | -117.78492 | 3053 ft | 109 kts | 189° |
| 2026-04-26 22:39 | 34.05386 | -117.78556 | 3357 ft | 111 kts | 190° |
| 2026-04-26 22:39 | 34.04610 | -117.78604 | 3689 ft | 111 kts | 182° |
| 2026-04-26 22:39 | 34.03823 | -117.78523 | 3967 ft | 114 kts | 183° |
| 2026-04-26 22:39 | 34.03031 | -117.78481 | 4245 ft | 116 kts | 185° |
| 2026-04-26 22:40 | 34.02226 | -117.78523 | 4530 ft | 116 kts | 190° |
| 2026-04-26 22:40 | 34.01420 | -117.78589 | 4790 ft | 118 kts | 193° |
| 2026-04-26 22:40 | 34.00559 | -117.78749 | 4894 ft | 131 kts | 193° |
| 2026-04-26 22:40 | 33.99689 | -117.78819 | 5298 ft | 120 kts | 188° |
| 2026-04-26 22:41 | 33.98866 | -117.78771 | 5588 ft | 120 kts | 184° |
| 2026-04-26 22:41 | 33.98010 | -117.78679 | 5811 ft | 124 kts | 181° |
| 2026-04-26 22:41 | 33.97162 | -117.78571 | 6105 ft | 121 kts | 184° |
| 2026-04-26 22:41 | 33.96321 | -117.78486 | 6345 ft | 123 kts | 184° |
| 2026-04-26 22:42 | 33.95518 | -117.78362 | 6742 ft | 109 kts | 181° |
| 2026-04-26 22:42 | 33.94770 | -117.78181 | 6989 ft | 115 kts | 175° |
| 2026-04-26 22:42 | 33.93954 | -117.77841 | 7075 ft | 129 kts | 179° |
| 2026-04-26 22:42 | 33.93138 | -117.78143 | 7129 ft | 126 kts | 224° |
| 2026-04-26 22:43 | 33.92322 | -117.78678 | 7118 ft | 148 kts | 195° |
| 2026-04-26 22:43 | 33.91296 | -117.78335 | 7114 ft | 169 kts | 152° |
| 2026-04-26 22:43 | 33.90443 | -117.77266 | 7049 ft | 184 kts | 129° |
| 2026-04-26 22:43 | 33.89884 | -117.76045 | 6942 ft | 195 kts | 110° |
| 2026-04-26 22:44 | 33.89865 | -117.74458 | 7048 ft | 189 kts | 79° |
| 2026-04-26 22:44 | 33.90151 | -117.72935 | 7092 ft | 189 kts | 74° |
| 2026-04-26 22:44 | 33.90489 | -117.71382 | 7100 ft | 191 kts | 73° |
| 2026-04-26 22:44 | 33.90821 | -117.69816 | 6997 ft | 199 kts | 75° |
| 2026-04-26 22:45 | 33.91076 | -117.68181 | 7014 ft | 196 kts | 81° |
| 2026-04-26 22:45 | 33.91233 | -117.66543 | 7003 ft | 197 kts | 84° |
| 2026-04-26 22:45 | 33.91321 | -117.64902 | 7001 ft | 196 kts | 89° |
| 2026-04-26 22:45 | 33.91366 | -117.63261 | 7000 ft | 196 kts | 90° |
| 2026-04-26 22:46 | 33.91388 | -117.61618 | 6999 ft | 196 kts | 91° |
| 2026-04-26 22:46 | 33.91401 | -117.60018 | 7000 ft | 196 kts | 91° |
| 2026-04-26 22:46 | 33.91413 | -117.58632 | 7000 ft | 196 kts | 90° |
| 2026-04-26 22:46 | 33.91434 | -117.57062 | 7000 ft | 196 kts | 90° |
| 2026-04-26 22:47 | 33.91477 | -117.55462 | 7000 ft | 196 kts | 88° |
| 2026-04-26 22:47 | 33.91411 | -117.53908 | 6992 ft | 194 kts | 109° |
| 2026-04-26 22:47 | 33.90655 | -117.52613 | 7011 ft | 186 kts | 144° |
| 2026-04-26 22:47 | 33.89617 | -117.51735 | 7006 ft | 185 kts | 153° |
| 2026-04-26 22:48 | 33.88518 | -117.50920 | 7002 ft | 185 kts | 154° |
| 2026-04-26 22:48 | 33.87422 | -117.50093 | 7000 ft | 186 kts | 153° |
| 2026-04-26 22:48 | 33.86339 | -117.49244 | 7000 ft | 186 kts | 152° |
| 2026-04-26 22:48 | 33.85263 | -117.48373 | 7000 ft | 186 kts | 151° |
| 2026-04-26 22:49 | 33.84192 | -117.47489 | 7000 ft | 187 kts | 150° |
| 2026-04-26 22:49 | 33.83132 | -117.46600 | 7000 ft | 187 kts | 150° |
| 2026-04-26 22:49 | 33.82069 | -117.45700 | 7000 ft | 187 kts | 150° |
| 2026-04-26 22:49 | 33.81006 | -117.44793 | 7000 ft | 187 kts | 150° |
| 2026-04-26 22:50 | 33.79950 | -117.43886 | 7000 ft | 187 kts | 149° |
| 2026-04-26 22:50 | 33.78922 | -117.42998 | 7000 ft | 187 kts | 149° |
| 2026-04-26 22:50 | 33.77866 | -117.42078 | 7000 ft | 187 kts | 149° |
| 2026-04-26 22:50 | 33.76815 | -117.41152 | 6999 ft | 187 kts | 149° |
| 2026-04-26 22:51 | 33.75888 | -117.40322 | 6999 ft | 187 kts | 148° |
| 2026-04-26 22:51 | 33.74917 | -117.39430 | 6999 ft | 188 kts | 147° |
| 2026-04-26 22:51 | 33.73975 | -117.38536 | 6998 ft | 187 kts | 149° |
| 2026-04-26 22:51 | 33.72880 | -117.37689 | 6999 ft | 184 kts | 155° |
| 2026-04-26 22:52 | 33.71792 | -117.36905 | 6999 ft | 184 kts | 154° |
| 2026-04-26 22:52 | 33.70702 | -117.36089 | 6998 ft | 185 kts | 153° |
| 2026-04-26 22:52 | 33.69621 | -117.35245 | 6998 ft | 185 kts | 152° |
| 2026-04-26 22:52 | 33.68548 | -117.34378 | 6998 ft | 186 kts | 151° |
| 2026-04-26 22:53 | 33.67483 | -117.33500 | 6999 ft | 186 kts | 150° |
| 2026-04-26 22:53 | 33.66422 | -117.32612 | 6999 ft | 186 kts | 150° |
| 2026-04-26 22:53 | 33.65361 | -117.31715 | 6999 ft | 186 kts | 150° |
| 2026-04-26 22:53 | 33.64302 | -117.30813 | 6999 ft | 186 kts | 150° |
| 2026-04-26 22:54 | 33.63249 | -117.29909 | 6999 ft | 186 kts | 150° |
| 2026-04-26 22:54 | 33.62202 | -117.29001 | 6997 ft | 184 kts | 149° |
| 2026-04-26 22:54 | 33.61174 | -117.28095 | 6997 ft | 183 kts | 149° |
| 2026-04-26 22:54 | 33.60156 | -117.27183 | 6998 ft | 182 kts | 149° |
| 2026-04-26 22:55 | 33.59153 | -117.26262 | 6998 ft | 181 kts | 148° |
| 2026-04-26 22:55 | 33.58170 | -117.25322 | 6998 ft | 180 kts | 148° |
| 2026-04-26 22:55 | 33.57138 | -117.24505 | 7000 ft | 177 kts | 155° |
| 2026-04-26 22:55 | 33.56092 | -117.23743 | 6999 ft | 176 kts | 155° |
| 2026-04-26 22:56 | 33.55071 | -117.22965 | 6999 ft | 175 kts | 153° |
| 2026-04-26 22:56 | 33.54078 | -117.22170 | 6999 ft | 175 kts | 152° |
| 2026-04-26 22:56 | 33.53080 | -117.21342 | 6999 ft | 175 kts | 151° |
| 2026-04-26 22:56 | 33.52086 | -117.20496 | 6999 ft | 175 kts | 151° |
| 2026-04-26 22:57 | 33.51117 | -117.19655 | 6999 ft | 175 kts | 150° |
| 2026-04-26 22:57 | 33.50132 | -117.18783 | 6999 ft | 176 kts | 149° |
| 2026-04-26 22:57 | 33.49147 | -117.17888 | 6998 ft | 179 kts | 147° |
| 2026-04-26 22:57 | 33.48150 | -117.17010 | 7000 ft | 176 kts | 159° |
| 2026-04-26 22:58 | 33.47026 | -117.16588 | 7008 ft | 170 kts | 175° |
| 2026-04-26 22:58 | 33.45850 | -117.16344 | 7002 ft | 169 kts | 178° |
| 2026-04-26 22:58 | 33.44688 | -117.16125 | 7000 ft | 170 kts | 178° |
| 2026-04-26 22:58 | 33.43519 | -117.15897 | 7000 ft | 170 kts | 177° |
| 2026-04-26 22:59 | 33.42368 | -117.15663 | 7000 ft | 170 kts | 177° |
| 2026-04-26 22:59 | 33.41227 | -117.15230 | 6947 ft | 176 kts | 161° |
| 2026-04-26 22:59 | 33.40093 | -117.14531 | 6687 ft | 181 kts | 158° |
| 2026-04-26 22:59 | 33.38994 | -117.13801 | 6496 ft | 177 kts | 155° |
| 2026-04-26 23:00 | 33.37929 | -117.13104 | 6289 ft | 174 kts | 158° |
| 2026-04-26 23:00 | 33.36850 | -117.12429 | 5967 ft | 179 kts | 157° |
| 2026-04-26 23:00 | 33.35723 | -117.11719 | 5523 ft | 187 kts | 156° |
| 2026-04-26 23:00 | 33.34593 | -117.11002 | 5236 ft | 179 kts | 159° |
| 2026-04-26 23:01 | 33.33508 | -117.10387 | 5105 ft | 166 kts | 159° |
| 2026-04-26 23:01 | 33.32483 | -117.09800 | 5035 ft | 161 kts | 159° |
| 2026-04-26 23:01 | 33.31489 | -117.09204 | 4977 ft | 158 kts | 157° |
| 2026-04-26 23:01 | 33.30538 | -117.08594 | 4991 ft | 152 kts | 156° |
| 2026-04-26 23:02 | 33.29619 | -117.07995 | 4993 ft | 149 kts | 156° |
| 2026-04-26 23:02 | 33.28672 | -117.07388 | 4805 ft | 159 kts | 156° |
| 2026-04-26 23:02 | 33.27684 | -117.06759 | 4660 ft | 162 kts | 156° |
| 2026-04-26 23:02 | 33.26699 | -117.06133 | 4609 ft | 159 kts | 156° |
| 2026-04-26 23:03 | 33.25703 | -117.05503 | 4416 ft | 165 kts | 156° |
| 2026-04-26 23:03 | 33.24659 | -117.04851 | 4169 ft | 172 kts | 156° |
| 2026-04-26 23:03 | 33.23597 | -117.04196 | 4044 ft | 169 kts | 156° |
| 2026-04-26 23:03 | 33.22572 | -117.03564 | 3999 ft | 163 kts | 156° |
| 2026-04-26 23:04 | 33.21593 | -117.02959 | 3993 ft | 158 kts | 156° |
| 2026-04-26 23:04 | 33.20623 | -117.02364 | 3996 ft | 156 kts | 156° |
| 2026-04-26 23:04 | 33.19646 | -117.01846 | 3987 ft | 152 kts | 172° |
| 2026-04-26 23:04 | 33.18675 | -117.02097 | 4007 ft | 140 kts | 214° |
| 2026-04-26 23:05 | 33.17890 | -117.02776 | 4009 ft | 139 kts | 221° |
| 2026-04-26 23:05 | 33.17134 | -117.03503 | 4002 ft | 140 kts | 222° |
| 2026-04-26 23:05 | 33.16378 | -117.04235 | 4000 ft | 140 kts | 223° |
| 2026-04-26 23:05 | 33.15748 | -117.05081 | 3982 ft | 136 kts | 252° |
| 2026-04-26 23:06 | 33.15813 | -117.06173 | 4023 ft | 132 kts | 284° |
| 2026-04-26 23:06 | 33.16043 | -117.07243 | 3970 ft | 134 kts | 281° |
| 2026-04-26 23:06 | 33.16177 | -117.08351 | 3842 ft | 135 kts | 271° |
| 2026-04-26 23:06 | 33.15961 | -117.09421 | 3708 ft | 134 kts | 252° |
| 2026-04-26 23:07 | 33.15764 | -117.10120 | 3604 ft | 135 kts | 252° |
| 2026-04-26 23:07 | 33.15490 | -117.11198 | 3438 ft | 137 kts | 259° |
| 2026-04-26 23:07 | 33.15311 | -117.12321 | 3262 ft | 139 kts | 258° |
| 2026-04-26 23:07 | 33.15130 | -117.13468 | 3051 ft | 141 kts | 260° |
| 2026-04-26 23:08 | 33.14963 | -117.14614 | 2841 ft | 139 kts | 260° |
| 2026-04-26 23:08 | 33.14788 | -117.15743 | 2595 ft | 138 kts | 259° |
| 2026-04-26 23:08 | 33.14614 | -117.16846 | 2314 ft | 138 kts | 259° |
| 2026-04-26 23:08 | 33.14459 | -117.17786 | 2080 ft | 118 kts | 258° |
| 2026-04-26 23:09 | 33.14308 | -117.18718 | 1862 ft | 111 kts | 257° |
| 2026-04-26 23:09 | 33.14195 | -117.19290 | 1720 ft | 103 kts | 257° |
| 2026-04-26 23:09 | 33.14054 | -117.20069 | 1554 ft | 92 kts | 259° |
| 2026-04-26 23:09 | 33.13956 | -117.20791 | 1460 ft | 84 kts | 263° |
| 2026-04-26 23:10 | 33.13851 | -117.21476 | 1318 ft | 84 kts | 259° |
| 2026-04-26 23:10 | 33.13759 | -117.22135 | 1212 ft | 83 kts | 261° |
| 2026-04-26 23:10 | 33.13652 | -117.22802 | 1090 ft | 82 kts | 261° |
| 2026-04-26 23:10 | 33.13546 | -117.23476 | 997 ft | 82 kts | 260° |
| 2026-04-26 23:11 | 33.13443 | -117.24134 | 889 ft | 80 kts | 260° |
| 2026-04-26 23:11 | 33.13336 | -117.24778 | 810 ft | 76 kts | 261° |
| 2026-04-26 23:11 | 33.13240 | -117.25394 | 696 ft | 75 kts | 261° |
| 2026-04-26 23:11 | 33.13148 | -117.25985 | 593 ft | 71 kts | 260° |
| 2026-04-26 23:12 | 33.13057 | -117.26566 | 486 ft | 72 kts | 261° |
| 2026-04-26 23:12 | 33.12962 | -117.27139 | 391 ft | 69 kts | 261° |
| 2026-04-26 23:12 | 33.12885 | -117.27635 | 335 ft | 49 kts | 261° |
| 2026-04-26 23:12 | 33.12826 | -117.27944 | 335 ft | 29 kts | 243° |
| 2026-04-26 23:13 | 33.12738 | -117.28074 | 334 ft | 0 kts | 227° |
| 2026-04-26 23:13 | 33.12733 | -117.28079 | 334 ft | 6 kts | 214° |
| 2026-04-26 23:14 | 33.12675 | -117.28088 | 334 ft | 9 kts | 177° |
| 2026-04-26 23:14 | 33.12631 | -117.28126 | 334 ft | 8 kts | 252° |
| 2026-04-26 23:14 | 33.12621 | -117.28201 | 334 ft | 7 kts | 256° |
| 2026-04-26 23:14 | 33.12614 | -117.28232 | 334 ft | 0 kts | 249° |